Time;durP1;ratioP1;P1;durP2;ratioP2;P2;SDS_P1;SDS_P2;PMS_P1;PMS_P2;Temp;Humidity;BMP_temperature;BMP_pressure;BME280_temperature;BME280_humidity;BME280_pressure;Samples;Min_cycle;Max_cycle;Signal;HPM_P1;HPM_P2
2022/05/14 00:01:10;;;;;;;0.65;0.60;;;12.10;99.90;;;;;;5113807;28;20173;-63
2022/05/14 00:03:38;;;;;;;1.48;0.82;;;12.10;99.90;;;;;;5113846;28;20177;-63
2022/05/14 00:06:10;;;;;;;0.60;0.60;;;12.00;99.90;;;;;;5112645;28;20266;-63
2022/05/14 00:08:37;;;;;;;0.50;0.50;;;12.00;99.90;;;;;;5113860;28;20626;-63
2022/05/14 00:13:48;;;;;;;1.58;0.95;;;11.90;99.90;;;;;;5114132;28;20180;-63
2022/05/14 00:16:15;;;;;;;1.00;0.90;;;12.00;99.90;;;;;;5112317;28;20173;-64
2022/05/14 00:18:43;;;;;;;1.52;0.70;;;12.00;99.90;;;;;;5113544;28;20270;-63
2022/05/14 00:21:09;;;;;;;1.30;0.75;;;12.10;99.90;;;;;;5112542;28;20670;-63
2022/05/14 00:23:35;;;;;;;0.93;0.82;;;12.10;99.90;;;;;;5113664;28;20631;-63
2022/05/14 00:26:00;;;;;;;1.95;0.80;;;12.10;99.90;;;;;;5113698;28;20177;-63
2022/05/14 00:28:26;;;;;;;0.70;0.70;;;12.00;99.90;;;;;;5117390;28;20634;-63
2022/05/14 00:30:52;;;;;;;1.20;0.63;;;12.00;99.90;;;;;;5120488;28;20177;-63
2022/05/14 00:33:18;;;;;;;0.85;0.65;;;11.90;99.90;;;;;;5120641;28;20169;-63
2022/05/14 00:35:44;;;;;;;1.23;0.65;;;11.90;99.90;;;;;;5120616;28;20177;-63
2022/05/14 00:38:09;;;;;;;0.70;0.70;;;11.90;99.90;;;;;;5120320;28;20195;-63
2022/05/14 00:40:39;;;;;;;1.10;0.80;;;11.90;99.90;;;;;;5120409;28;20603;-63
2022/05/14 00:43:06;;;;;;;1.00;0.90;;;11.90;99.90;;;;;;5120161;28;20216;-63
2022/05/14 00:45:35;;;;;;;1.05;0.95;;;11.70;99.90;;;;;;5120257;28;20630;-62
2022/05/14 00:48:02;;;;;;;1.42;0.70;;;11.80;99.90;;;;;;5120355;28;20173;-63
2022/05/14 00:50:49;;;;;;;1.23;0.82;;;11.70;99.90;;;;;;5120370;28;20169;-63
2022/05/14 00:53:26;;;;;;;0.82;0.80;;;11.70;99.90;;;;;;5120344;28;20173;-63
2022/05/14 00:55:54;;;;;;;1.13;0.60;;;11.70;99.90;;;;;;5120179;28;20251;-63
2022/05/14 00:58:32;;;;;;;0.80;0.80;;;11.60;99.90;;;;;;5119039;28;20571;-63
2022/05/14 01:00:58;;;;;;;1.58;1.00;;;11.50;99.90;;;;;;5119176;28;20264;-62
2022/05/14 01:03:23;;;;;;;0.88;0.70;;;11.50;99.90;;;;;;5118982;28;20729;-63
2022/05/14 01:05:51;;;;;;;1.15;0.73;;;11.60;99.90;;;;;;5118659;28;20280;-63
2022/05/14 01:08:17;;;;;;;0.85;0.68;;;11.50;99.90;;;;;;5120009;28;20202;-63
2022/05/14 01:10:45;;;;;;;1.48;0.80;;;11.50;99.90;;;;;;5120303;28;20560;-63
2022/05/14 01:13:11;;;;;;;1.48;1.05;;;11.50;99.90;;;;;;5120081;28;20169;-62
2022/05/14 01:15:45;;;;;;;1.77;1.05;;;11.40;99.90;;;;;;5120170;28;20751;-63
2022/05/14 01:18:12;;;;;;;1.25;0.77;;;11.40;99.90;;;;;;5119919;28;20654;-63
2022/05/14 01:20:39;;;;;;;0.93;0.90;;;11.40;99.90;;;;;;5120004;28;20226;-63
2022/05/14 01:23:15;;;;;;;1.90;1.15;;;11.40;99.90;;;;;;5119888;28;20262;-63
2022/05/14 01:28:35;;;;;;;1.75;1.05;;;11.40;99.90;;;;;;5120266;28;20699;-63
2022/05/14 01:31:01;;;;;;;1.33;0.90;;;11.30;99.90;;;;;;5120434;28;20169;-63
2022/05/14 01:33:27;;;;;;;1.50;0.90;;;11.30;99.90;;;;;;5119741;28;20218;-63
2022/05/14 01:35:53;;;;;;;2.53;1.10;;;11.30;99.90;;;;;;5120306;28;20180;-63
2022/05/14 01:38:21;;;;;;;0.88;0.88;;;11.30;99.90;;;;;;5118721;28;20169;-62
2022/05/14 01:40:47;;;;;;;1.17;1.00;;;11.30;99.90;;;;;;5114368;28;20165;-63
2022/05/14 01:43:13;;;;;;;1.10;0.93;;;11.40;99.90;;;;;;5116554;28;20607;-63
2022/05/14 01:45:39;;;;;;;2.72;0.90;;;11.40;99.90;;;;;;5115313;28;20176;-63
2022/05/14 01:48:05;;;;;;;1.23;1.05;;;11.20;99.90;;;;;;5116866;28;20173;-63
2022/05/14 01:50:31;;;;;;;1.00;0.93;;;11.20;99.90;;;;;;5116561;28;20257;-63
2022/05/14 01:52:57;;;;;;;1.05;0.90;;;11.20;99.90;;;;;;5115290;28;20219;-62
2022/05/14 01:55:23;;;;;;;0.98;0.90;;;11.10;99.90;;;;;;5116426;28;20682;-63
2022/05/14 01:57:49;;;;;;;0.82;0.80;;;11.20;99.90;;;;;;5115146;28;20534;-63
2022/05/14 02:00:16;;;;;;;1.05;1.00;;;11.10;99.90;;;;;;5116204;28;20260;-63
2022/05/14 02:02:42;;;;;;;3.10;1.10;;;11.10;99.90;;;;;;5116242;28;20722;-63
2022/05/14 02:05:08;;;;;;;1.00;0.80;;;11.00;99.90;;;;;;5116455;28;20442;-62
2022/05/14 02:07:34;;;;;;;1.40;0.98;;;10.90;99.90;;;;;;5116556;28;20174;-63
2022/05/14 02:10:00;;;;;;;1.38;1.20;;;10.90;99.90;;;;;;5116151;28;20636;-63
2022/05/14 02:12:26;;;;;;;1.13;1.08;;;10.90;99.90;;;;;;5116006;28;20260;-63
2022/05/14 02:14:52;;;;;;;0.70;0.70;;;10.80;99.90;;;;;;5114855;28;20260;-63
2022/05/14 02:17:17;;;;;;;2.15;1.00;;;10.90;99.90;;;;;;5116515;28;20177;-63
2022/05/14 02:19:43;;;;;;;1.38;0.90;;;10.90;99.90;;;;;;5115822;28;20173;-62
2022/05/14 02:22:09;;;;;;;1.50;0.90;;;10.80;99.90;;;;;;5097594;28;20213;-63
2022/05/14 02:24:37;;;;;;;1.35;1.00;;;10.80;99.90;;;;;;5114539;28;20173;-63
2022/05/14 02:27:03;;;;;;;2.65;1.30;;;10.80;99.90;;;;;;5115897;28;20177;-63
2022/05/14 02:29:50;;;;;;;1.95;1.00;;;10.80;99.90;;;;;;5115573;28;20257;-63
2022/05/14 02:32:15;;;;;;;1.35;1.00;;;10.80;99.90;;;;;;5115652;28;20716;-63
2022/05/14 02:34:41;;;;;;;1.45;1.17;;;10.70;99.90;;;;;;5115692;28;20178;-63
2022/05/14 02:37:06;;;;;;;1.60;1.13;;;10.80;99.90;;;;;;5114429;28;20170;-62
2022/05/14 02:39:32;;;;;;;2.42;1.25;;;10.80;99.90;;;;;;5114459;28;20212;-62
2022/05/14 02:41:57;;;;;;;0.95;0.90;;;10.80;99.90;;;;;;5115349;28;20215;-63
2022/05/14 02:44:23;;;;;;;1.75;1.38;;;10.80;99.90;;;;;;5115823;28;20177;-63
2022/05/14 02:46:49;;;;;;;0.80;0.80;;;10.70;99.90;;;;;;5115747;28;20646;-63
2022/05/14 02:49:14;;;;;;;1.52;1.30;;;10.70;99.90;;;;;;5115439;28;20278;-63
2022/05/14 02:51:40;;;;;;;1.65;1.10;;;10.70;99.90;;;;;;5114823;28;20561;-63
2022/05/14 02:54:06;;;;;;;1.05;0.95;;;10.70;99.90;;;;;;5114093;28;20266;-63
2022/05/14 02:56:32;;;;;;;1.52;1.10;;;10.70;99.90;;;;;;5113985;28;20169;-62
2022/05/14 02:59:07;;;;;;;1.10;1.00;;;10.70;99.90;;;;;;5115423;28;20185;-62
2022/05/14 03:01:33;;;;;;;1.48;1.23;;;10.70;99.90;;;;;;5114246;28;20246;-63
2022/05/14 03:04:00;;;;;;;1.10;1.00;;;10.50;99.90;;;;;;5114958;28;20181;-63
2022/05/14 03:06:26;;;;;;;1.30;1.20;;;10.60;99.90;;;;;;5115287;28;20534;-63
2022/05/14 03:08:52;;;;;;;2.50;1.42;;;10.50;99.90;;;;;;5115011;28;20177;-63
2022/05/14 03:11:19;;;;;;;1.60;1.10;;;10.50;99.90;;;;;;5113592;28;20656;-62
2022/05/14 03:13:44;;;;;;;2.10;1.20;;;10.50;99.90;;;;;;5114376;28;20636;-62
2022/05/14 03:16:11;;;;;;;1.20;1.10;;;10.50;99.90;;;;;;5113820;28;20180;-62
2022/05/14 03:18:37;;;;;;;1.40;1.30;;;10.40;99.90;;;;;;5114822;28;20177;-62
2022/05/14 03:21:03;;;;;;;1.08;0.98;;;10.40;99.90;;;;;;5113493;28;20177;-62
2022/05/14 03:23:29;;;;;;;3.28;1.20;;;10.40;99.90;;;;;;5114719;28;20209;-62
2022/05/14 03:25:55;;;;;;;1.48;1.15;;;10.40;99.90;;;;;;5113248;28;20181;-63
2022/05/14 03:28:21;;;;;;;1.85;1.33;;;10.40;99.90;;;;;;5114653;28;20173;-63
2022/05/14 03:30:47;;;;;;;1.45;1.20;;;10.40;99.90;;;;;;5113505;28;20653;-63
2022/05/14 03:33:13;;;;;;;1.55;1.02;;;10.40;99.90;;;;;;5114888;28;20178;-63
2022/05/14 03:35:39;;;;;;;1.55;1.10;;;10.40;99.90;;;;;;5114281;28;20182;-63
2022/05/14 03:38:05;;;;;;;1.20;1.00;;;10.30;99.90;;;;;;5114440;28;20208;-63
2022/05/14 03:40:30;;;;;;;1.35;1.10;;;10.40;99.90;;;;;;5114279;28;20165;-62
2022/05/14 03:42:56;;;;;;;1.92;1.23;;;10.40;99.90;;;;;;5114255;28;20254;-62
2022/05/14 03:45:22;;;;;;;2.83;1.58;;;10.40;99.90;;;;;;5096538;28;20195;-62
2022/05/14 03:47:47;;;;;;;2.00;1.30;;;10.40;99.90;;;;;;5112923;28;20178;-63
2022/05/14 03:50:13;;;;;;;1.65;1.17;;;10.40;99.90;;;;;;5114237;28;20173;-63
2022/05/14 03:52:39;;;;;;;2.35;1.40;;;10.30;99.90;;;;;;5112938;28;20265;-63
2022/05/14 03:55:05;;;;;;;1.42;1.33;;;10.30;99.90;;;;;;5113974;28;20280;-63
2022/05/14 03:57:31;;;;;;;1.40;1.23;;;10.20;99.90;;;;;;5113133;28;20218;-62
2022/05/14 03:59:57;;;;;;;1.30;1.17;;;10.20;99.90;;;;;;5112751;28;20169;-62
2022/05/14 04:02:23;;;;;;;1.27;1.17;;;10.10;99.90;;;;;;5113586;28;20201;-62
2022/05/14 04:04:49;;;;;;;1.27;1.17;;;10.10;99.90;;;;;;5112425;28;20197;-63
2022/05/14 04:07:15;;;;;;;1.95;1.40;;;10.10;99.90;;;;;;5112794;28;20196;-63
2022/05/14 04:09:40;;;;;;;2.13;1.23;;;10.10;99.90;;;;;;5114139;28;20200;-63
2022/05/14 04:12:07;;;;;;;1.48;1.38;;;10.00;99.90;;;;;;5112809;28;20178;-62
2022/05/14 04:14:32;;;;;;;2.53;1.55;;;10.10;99.90;;;;;;5112661;28;20198;-62
2022/05/14 04:16:58;;;;;;;1.73;1.42;;;10.10;99.90;;;;;;5112643;28;20264;-63
2022/05/14 04:19:25;;;;;;;2.15;1.35;;;10.10;99.90;;;;;;5113722;28;20543;-63
2022/05/14 04:21:51;;;;;;;2.95;1.48;;;10.10;99.90;;;;;;5112310;28;20205;-62
2022/05/14 04:24:17;;;;;;;3.85;1.77;;;10.20;99.90;;;;;;5112563;28;20358;-63
2022/05/14 04:26:43;;;;;;;1.98;1.50;;;10.20;99.90;;;;;;5114064;28;20165;-62
2022/05/14 04:29:08;;;;;;;1.88;1.40;;;10.20;99.90;;;;;;5113722;28;20622;-63
2022/05/14 04:31:35;;;;;;;1.85;1.27;;;10.20;99.90;;;;;;5113636;28;20184;-63
2022/05/14 04:34:01;;;;;;;1.80;1.42;;;10.30;99.90;;;;;;5112382;28;20268;-63
2022/05/14 04:36:26;;;;;;;1.30;1.20;;;10.30;99.90;;;;;;5113468;28;20260;-62
2022/05/14 04:38:52;;;;;;;2.17;1.40;;;10.20;99.90;;;;;;5113476;28;20173;-63
2022/05/14 04:41:18;;;;;;;1.70;1.50;;;10.30;99.90;;;;;;5113742;28;20176;-63
2022/05/14 04:43:44;;;;;;;1.55;1.33;;;10.30;99.90;;;;;;5095365;28;20218;-62
2022/05/14 04:46:09;;;;;;;2.13;1.40;;;10.30;99.90;;;;;;5113523;28;20577;-63
2022/05/14 04:48:36;;;;;;;2.95;1.38;;;10.40;99.90;;;;;;5113515;28;20180;-62
2022/05/14 04:51:03;;;;;;;1.48;1.23;;;10.40;99.90;;;;;;5113377;28;20200;-63
2022/05/14 04:53:28;;;;;;;2.40;1.48;;;10.50;99.90;;;;;;5113259;28;20272;-63
2022/05/14 04:55:54;;;;;;;2.17;1.50;;;10.50;99.90;;;;;;5112375;28;20256;-62
2022/05/14 04:58:20;;;;;;;2.20;1.55;;;10.60;99.90;;;;;;5113468;28;20264;-63
2022/05/14 05:00:46;;;;;;;1.35;1.25;;;10.70;99.90;;;;;;5112204;28;20258;-62
2022/05/14 05:03:19;;;;;;;1.80;1.60;;;10.70;99.90;;;;;;5113298;28;20241;-63
2022/05/14 05:05:59;;;;;;;1.95;1.38;;;10.80;99.90;;;;;;5113048;28;20222;-63
2022/05/14 05:08:28;;;;;;;3.38;1.60;;;10.80;99.90;;;;;;5113498;28;20173;-63
2022/05/14 05:10:54;;;;;;;2.17;1.60;;;10.80;99.90;;;;;;5113411;28;20172;-62
2022/05/14 05:13:26;;;;;;;1.92;1.50;;;10.90;99.90;;;;;;5113348;28;20177;-62
2022/05/14 05:15:52;;;;;;;4.20;2.28;;;11.00;99.90;;;;;;5117080;28;20169;-63
2022/05/14 05:18:19;;;;;;;2.33;1.48;;;11.10;99.90;;;;;;5117055;28;20169;-63
2022/05/14 05:20:48;;;;;;;2.35;1.40;;;11.10;99.90;;;;;;5117200;28;20177;-62
2022/05/14 05:23:17;;;;;;;2.55;1.40;;;11.20;99.90;;;;;;5117038;28;20230;-63
2022/05/14 05:25:45;;;;;;;2.60;1.73;;;11.20;99.90;;;;;;5117063;28;20172;-63
2022/05/14 05:28:10;;;;;;;1.45;1.35;;;11.30;99.90;;;;;;5116804;28;20170;-63
2022/05/14 05:30:36;;;;;;;2.13;1.70;;;11.40;99.90;;;;;;5116864;28;20184;-63
2022/05/14 05:33:02;;;;;;;3.45;2.00;;;11.50;99.90;;;;;;5116985;28;20185;-63
2022/05/14 05:35:28;;;;;;;2.38;1.55;;;11.70;99.90;;;;;;5115575;28;20226;-63
2022/05/14 05:37:54;;;;;;;2.13;1.92;;;11.70;99.90;;;;;;5115623;28;20653;-63
2022/05/14 05:40:20;;;;;;;3.42;1.80;;;11.90;99.90;;;;;;5116742;28;20169;-63
2022/05/14 05:42:47;;;;;;;2.00;1.80;;;11.90;99.90;;;;;;5116258;28;20284;-63
2022/05/14 05:45:15;;;;;;;3.38;2.10;;;12.00;99.90;;;;;;5115989;28;20248;-63
2022/05/14 05:47:41;;;;;;;3.45;1.90;;;12.10;99.90;;;;;;5115336;27;20176;-63
2022/05/14 05:50:08;;;;;;;2.58;1.63;;;12.30;99.90;;;;;;5115051;28;20169;-63
2022/05/14 05:52:33;;;;;;;2.10;1.90;;;12.30;99.90;;;;;;5114247;28;20174;-63
2022/05/14 05:57:44;;;;;;;3.42;2.10;;;12.60;99.90;;;;;;5115180;28;20348;-63
2022/05/14 06:00:18;;;;;;;2.78;1.70;;;12.70;99.90;;;;;;5109912;27;20173;-63
2022/05/14 06:02:44;;;;;;;2.85;2.17;;;12.70;99.90;;;;;;5113847;28;20212;-63
2022/05/14 06:05:10;;;;;;;3.92;2.20;;;12.80;99.90;;;;;;5110410;27;20216;-63
2022/05/14 06:07:37;;;;;;;4.55;2.80;;;12.90;99.90;;;;;;5108633;27;20208;-63
2022/05/14 06:10:05;;;;;;;3.30;2.22;;;13.00;99.90;;;;;;5111227;27;20173;-63
2022/05/14 06:12:31;;;;;;;2.78;2.10;;;13.10;99.90;;;;;;5110836;28;20196;-62
2022/05/14 06:14:56;;;;;;;3.30;2.47;;;13.30;99.90;;;;;;5111410;28;20169;-63
2022/05/14 06:17:23;;;;;;;6.10;2.38;;;13.30;99.90;;;;;;5114263;28;20646;-63
2022/05/14 06:19:48;;;;;;;4.18;2.33;;;13.40;99.90;;;;;;5115180;28;20631;-63
2022/05/14 06:22:14;;;;;;;3.08;2.35;;;13.50;99.90;;;;;;5115655;28;20201;-62
2022/05/14 06:24:40;;;;;;;3.40;2.28;;;13.70;99.90;;;;;;5115296;28;20263;-63
2022/05/14 06:27:06;;;;;;;4.43;2.65;;;13.90;99.90;;;;;;5114013;28;20166;-63
2022/05/14 06:29:31;;;;;;;3.60;2.63;;;14.10;99.90;;;;;;5115881;28;20169;-64
2022/05/14 06:31:58;;;;;;;3.10;2.72;;;14.10;99.90;;;;;;5115788;28;20230;-64
2022/05/14 06:34:25;;;;;;;2.70;2.25;;;14.10;99.90;;;;;;5115849;28;20173;-63
2022/05/14 06:36:51;;;;;;;5.47;2.78;;;14.10;99.90;;;;;;5097132;28;20226;-63
2022/05/14 06:39:17;;;;;;;3.35;2.70;;;14.30;99.90;;;;;;5114350;28;20225;-57
2022/05/14 06:41:43;;;;;;;4.90;3.00;;;14.40;99.90;;;;;;5114096;28;20205;-61
2022/05/14 06:44:09;;;;;;;5.03;2.92;;;14.60;99.90;;;;;;5113434;28;20173;-61
2022/05/14 06:46:35;;;;;;;5.03;3.13;;;14.70;99.90;;;;;;5114523;28;20682;-62
2022/05/14 06:49:02;;;;;;;5.57;3.22;;;15.00;99.90;;;;;;5115411;28;20178;-62
2022/05/14 06:51:30;;;;;;;3.60;2.83;;;15.10;99.90;;;;;;5115332;28;20301;-61
2022/05/14 06:54:01;;;;;;;6.03;3.25;;;15.30;99.90;;;;;;5115089;28;20173;-61
2022/05/14 06:56:30;;;;;;;3.13;2.67;;;15.50;99.90;;;;;;5115172;28;20165;-61
2022/05/14 06:58:57;;;;;;;4.22;2.95;;;15.70;99.90;;;;;;5115210;28;20169;-61
2022/05/14 07:01:23;;;;;;;7.20;3.17;;;15.50;99.90;;;;;;5115086;28;20500;-61
2022/05/14 07:06:40;;;;;;;6.57;3.40;;;15.90;99.90;;;;;;5115248;28;20292;-62
2022/05/14 07:09:22;;;;;;;7.00;3.22;;;15.90;99.90;;;;;;5115241;28;20177;-62
2022/05/14 07:11:50;;;;;;;4.35;2.78;;;16.20;99.90;;;;;;5115067;28;20169;-62
2022/05/14 07:14:17;;;;;;;5.35;3.22;;;16.20;99.90;;;;;;5115151;28;20173;-62
2022/05/14 07:16:45;;;;;;;5.65;3.25;;;16.20;99.90;;;;;;5113472;28;20600;-62
2022/05/14 07:19:11;;;;;;;6.00;2.90;;;16.20;99.90;;;;;;5113433;28;20226;-62
2022/05/14 07:21:40;;;;;;;6.25;2.85;;;16.30;99.90;;;;;;5114722;28;20204;-62
2022/05/14 07:24:08;;;;;;;7.05;3.20;;;16.20;99.90;;;;;;5114986;28;20208;-62
2022/05/14 07:26:35;;;;;;;7.10;3.58;;;16.30;99.90;;;;;;5114879;28;20175;-62
2022/05/14 07:29:09;;;;;;;4.82;2.95;;;16.50;99.90;;;;;;5113254;28;20539;-62
2022/05/14 07:31:36;;;;;;;5.05;3.35;;;16.70;99.90;;;;;;5114735;28;20259;-62
2022/05/14 07:34:02;;;;;;;8.50;3.25;;;17.00;99.90;;;;;;5114587;28;20181;-62
2022/05/14 07:36:32;;;;;;;6.22;3.05;;;17.10;99.90;;;;;;5114521;28;20174;-62
2022/05/14 07:39:01;;;;;;;4.18;2.90;;;17.30;99.90;;;;;;5112235;28;20571;-62
2022/05/14 07:41:28;;;;;;;4.57;2.80;;;17.40;99.90;;;;;;5114381;28;20165;-61
2022/05/14 07:43:57;;;;;;;5.15;3.42;;;17.60;99.90;;;;;;5114297;28;20204;-62
2022/05/14 07:46:32;;;;;;;4.95;3.28;;;17.70;99.90;;;;;;5114158;28;20651;-62
2022/05/14 07:49:00;;;;;;;4.47;2.80;;;17.70;99.90;;;;;;5114429;28;20245;-62
2022/05/14 07:51:26;;;;;;;5.95;3.10;;;17.80;99.90;;;;;;5114104;28;20276;-61
2022/05/14 07:53:53;;;;;;;6.93;3.78;;;17.80;99.90;;;;;;5112836;28;20177;-62
2022/05/14 07:56:18;;;;;;;4.25;2.97;;;17.40;99.90;;;;;;5112891;28;20173;-62
2022/05/14 07:58:44;;;;;;;4.78;2.85;;;17.70;99.90;;;;;;5112579;28;20301;-62
2022/05/14 08:01:11;;;;;;;4.72;3.13;;;17.80;99.90;;;;;;5095939;28;20222;-62
2022/05/14 08:03:37;;;;;;;3.55;2.85;;;18.00;99.90;;;;;;5113830;28;20619;-62
2022/05/14 08:06:03;;;;;;;3.80;2.90;;;18.20;99.90;;;;;;5114098;28;20188;-62
2022/05/14 08:08:29;;;;;;;3.63;2.95;;;18.40;99.90;;;;;;5113917;28;20182;-62
2022/05/14 08:10:55;;;;;;;5.60;3.47;;;18.40;99.90;;;;;;5113862;28;20222;-62
2022/05/14 08:13:23;;;;;;;3.85;2.50;;;18.40;99.90;;;;;;5113708;28;20170;-62
2022/05/14 08:15:50;;;;;;;3.60;2.70;;;18.50;99.90;;;;;;5114202;28;20641;-62
2022/05/14 08:18:17;;;;;;;4.88;3.13;;;18.30;99.90;;;;;;5114253;28;20169;-62
2022/05/14 08:20:45;;;;;;;4.28;2.63;;;18.50;99.90;;;;;;5114048;28;20234;-62
2022/05/14 08:25:58;;;;;;;5.80;2.70;;;18.90;99.90;;;;;;5114119;28;20164;-62
2022/05/14 08:28:24;;;;;;;4.45;2.70;;;19.00;99.90;;;;;;5113558;28;20231;-62
2022/05/14 08:30:50;;;;;;;5.00;3.20;;;19.10;99.90;;;;;;5113666;28;20173;-62
2022/05/14 08:33:15;;;;;;;3.85;2.70;;;18.90;99.90;;;;;;5113820;28;20205;-62
2022/05/14 08:35:42;;;;;;;4.53;3.10;;;19.20;99.90;;;;;;5113889;28;20176;-62
2022/05/14 08:38:10;;;;;;;4.55;2.80;;;19.20;99.90;;;;;;5113530;28;20180;-62
2022/05/14 08:40:41;;;;;;;4.65;2.85;;;19.60;99.90;;;;;;5113299;28;20227;-62
2022/05/14 08:43:21;;;;;;;4.45;2.47;;;19.70;99.90;;;;;;5113626;28;20201;-64
2022/05/14 08:45:46;;;;;;;7.38;3.03;;;19.70;99.90;;;;;;5114061;28;20169;-63
2022/05/14 08:48:30;;;;;;;3.25;2.35;;;19.80;99.90;;;;;;5113689;28;20178;-63
2022/05/14 08:51:16;;;;;;;3.42;2.00;;;19.80;99.90;;;;;;5117582;28;20165;-62
2022/05/14 08:53:43;;;;;;;3.80;2.30;;;20.10;99.90;;;;;;5117797;28;20173;-62
2022/05/14 08:56:18;;;;;;;4.65;2.25;;;20.10;99.90;;;;;;5117500;28;20230;-63
2022/05/14 08:58:49;;;;;;;4.82;2.45;;;20.20;99.90;;;;;;5117523;28;20207;-62
2022/05/14 09:01:19;;;;;;;3.75;2.10;;;20.40;99.90;;;;;;5117284;28;20161;-62
2022/05/14 09:03:45;;;;;;;4.50;2.22;;;20.30;99.90;;;;;;5117527;28;20193;-62
2022/05/14 09:06:12;;;;;;;3.55;1.90;;;20.30;99.90;;;;;;5117355;28;20538;-63
2022/05/14 09:08:40;;;;;;;4.75;2.67;;;20.50;99.90;;;;;;5117347;28;20670;-62
2022/05/14 09:11:17;;;;;;;3.50;2.15;;;20.50;99.90;;;;;;5116129;28;20184;-62
2022/05/14 09:13:46;;;;;;;4.15;1.98;;;20.50;99.90;;;;;;5117194;28;20175;-62
2022/05/14 09:16:33;;;;;;;2.72;2.38;;;20.50;99.90;;;;;;5117728;28;20172;-63
2022/05/14 09:18:59;;;;;;;3.78;1.73;;;20.70;99.90;;;;;;5117285;28;20184;-62
2022/05/14 09:21:32;;;;;;;3.20;2.03;;;20.70;99.90;;;;;;5116915;28;20229;-62
2022/05/14 09:24:00;;;;;;;3.78;2.00;;;20.90;99.90;;;;;;5117045;28;20173;-63
2022/05/14 09:26:40;;;;;;;2.95;1.90;;;20.90;99.90;;;;;;5116997;28;20168;-62
2022/05/14 09:29:35;;;;;;;4.90;2.10;;;21.10;99.90;;;;;;5115730;28;20522;-62
2022/05/14 09:32:05;;;;;;;2.63;1.65;;;21.30;99.90;;;;;;5116769;28;20214;-62
2022/05/14 09:34:34;;;;;;;4.53;2.25;;;21.30;99.90;;;;;;5115477;28;20180;-62
2022/05/14 09:37:12;;;;;;;4.05;2.00;;;21.60;99.90;;;;;;5117152;28;20170;-62
2022/05/14 09:39:38;;;;;;;3.88;1.65;;;21.50;99.90;;;;;;5116968;28;20188;-63
2022/05/14 09:42:05;;;;;;;3.85;1.85;;;21.60;99.90;;;;;;5116771;28;20208;-63
2022/05/14 09:44:44;;;;;;;2.40;1.50;;;22.10;99.90;;;;;;5116168;28;20169;-61
2022/05/14 09:47:30;;;;;;;2.42;1.85;;;22.20;99.70;;;;;;5116794;28;20169;-58
2022/05/14 09:50:03;;;;;;;4.28;2.15;;;22.10;99.60;;;;;;5116596;28;20257;-58
2022/05/14 09:52:32;;;;;;;2.42;1.50;;;22.00;99.30;;;;;;5116648;28;20229;-59
2022/05/14 09:55:03;;;;;;;4.50;1.50;;;22.20;98.70;;;;;;5116343;28;20173;-60
2022/05/14 09:57:38;;;;;;;3.00;1.60;;;22.20;99.10;;;;;;5116232;28;20634;-58
2022/05/14 10:00:12;;;;;;;3.03;1.60;;;22.20;98.60;;;;;;5115835;28;20169;-59
2022/05/14 10:02:44;;;;;;;4.03;1.80;;;22.00;98.60;;;;;;5114754;28;20209;-58
2022/05/14 10:05:21;;;;;;;3.97;1.67;;;22.00;99.10;;;;;;5116048;28;20638;-58
2022/05/14 10:08:20;;;;;;;4.30;1.80;;;22.50;98.60;;;;;;5116167;28;20634;-58
2022/05/14 10:11:08;;;;;;;3.20;2.00;;;22.50;97.50;;;;;;5116220;28;20507;-60
2022/05/14 10:13:43;;;;;;;3.22;1.85;;;22.60;98.10;;;;;;5114707;28;20569;-60
2022/05/14 10:16:32;;;;;;;4.05;2.22;;;22.70;98.30;;;;;;5113746;28;20176;-60
2022/05/14 10:19:06;;;;;;;2.78;1.65;;;22.70;97.70;;;;;;5113933;28;20577;-60
2022/05/14 10:21:41;;;;;;;2.25;1.63;;;23.00;96.80;;;;;;5113801;28;20219;-60
2022/05/14 10:27:37;;;;;;;3.03;1.65;;;22.90;96.70;;;;;;5113745;28;20562;-60
2022/05/14 10:30:09;;;;;;;5.20;2.08;;;22.70;96.60;;;;;;5115811;28;20176;-59
2022/05/14 10:32:37;;;;;;;3.85;1.92;;;22.80;95.90;;;;;;5115681;28;20634;-60
2022/05/14 10:35:25;;;;;;;4.30;1.73;;;22.90;96.90;;;;;;5115791;28;20165;-60
2022/05/14 10:38:08;;;;;;;3.65;1.70;;;22.70;96.50;;;;;;5114403;28;20668;-60
2022/05/14 10:40:44;;;;;;;4.40;1.77;;;22.90;97.10;;;;;;5115687;28;20616;-60
2022/05/14 10:43:43;;;;;;;2.72;1.50;;;23.00;97.00;;;;;;5114291;28;20238;-60
2022/05/14 10:46:11;;;;;;;4.00;1.67;;;23.10;96.20;;;;;;5115557;28;20197;-60
2022/05/14 10:48:49;;;;;;;1.45;1.30;;;23.30;95.20;;;;;;5115406;28;20165;-60
2022/05/14 10:51:21;;;;;;;2.22;1.50;;;23.20;94.90;;;;;;5115329;28;20173;-60
2022/05/14 10:53:48;;;;;;;4.70;1.90;;;23.20;94.60;;;;;;5115311;28;20169;-60
2022/05/14 10:56:21;;;;;;;2.22;1.38;;;23.30;94.00;;;;;;5115407;28;20201;-60
2022/05/14 10:59:00;;;;;;;4.55;1.60;;;23.50;93.80;;;;;;5115311;28;20211;-60
2022/05/14 11:01:51;;;;;;;3.03;1.60;;;23.80;93.40;;;;;;5115165;28;20165;-60
2022/05/14 11:04:27;;;;;;;3.47;2.15;;;23.40;93.60;;;;;;5103846;28;20209;-60
2022/05/14 11:07:14;;;;;;;3.97;1.83;;;23.30;94.00;;;;;;5113815;28;20622;-60
2022/05/14 11:09:40;;;;;;;4.30;1.50;;;23.40;93.50;;;;;;5115084;28;20214;-60
2022/05/14 11:12:25;;;;;;;2.15;1.38;;;23.30;93.90;;;;;;5114610;28;20173;-60
2022/05/14 11:14:57;;;;;;;5.15;1.60;;;23.30;94.50;;;;;;5114628;28;20170;-60
2022/05/14 11:17:30;;;;;;;1.77;1.42;;;23.30;94.00;;;;;;5114782;28;20200;-60
2022/05/14 11:20:02;;;;;;;2.83;1.17;;;23.30;93.70;;;;;;5114890;28;20176;-60
2022/05/14 11:22:41;;;;;;;2.05;1.30;;;23.50;94.00;;;;;;5113386;28;20646;-60
2022/05/14 11:25:19;;;;;;;2.03;1.20;;;23.60;93.10;;;;;;5114873;28;20207;-60
2022/05/14 11:28:25;;;;;;;2.75;1.30;;;23.70;92.70;;;;;;5113404;28;20271;-60
2022/05/14 11:30:55;;;;;;;2.17;1.40;;;24.00;91.90;;;;;;5114418;28;20699;-60
2022/05/14 11:33:26;;;;;;;1.92;1.67;;;24.10;91.90;;;;;;5114455;28;20208;-59
2022/05/14 11:35:53;;;;;;;2.72;1.20;;;24.30;91.50;;;;;;5114669;28;20178;-59
2022/05/14 11:38:24;;;;;;;2.65;1.30;;;24.20;90.10;;;;;;5114526;28;20173;-59
2022/05/14 11:41:02;;;;;;;2.88;1.45;;;24.10;90.00;;;;;;5114388;28;20176;-59
2022/05/14 11:43:31;;;;;;;2.17;1.20;;;23.80;88.70;;;;;;5114084;28;20204;-60
2022/05/14 11:46:25;;;;;;;3.28;1.58;;;23.90;90.10;;;;;;5114490;28;20165;-59
2022/05/14 11:48:59;;;;;;;3.50;1.58;;;24.10;91.40;;;;;;5113124;28;20169;-59
2022/05/14 11:51:32;;;;;;;2.13;1.30;;;24.20;91.00;;;;;;5114250;28;20175;-59
2022/05/14 11:54:22;;;;;;;2.03;1.10;;;24.10;90.00;;;;;;5114065;28;20169;-59
2022/05/14 11:56:58;;;;;;;3.83;1.60;;;24.20;90.60;;;;;;5105384;28;20185;-60
2022/05/14 11:59:49;;;;;;;2.75;1.33;;;24.30;89.00;;;;;;5113820;28;20630;-60
2022/05/14 12:02:23;;;;;;;1.52;1.13;;;24.20;90.10;;;;;;5113792;28;20338;-60
2022/05/14 12:04:57;;;;;;;3.88;1.77;;;24.70;89.60;;;;;;5113920;28;20281;-60
2022/05/14 12:07:33;;;;;;;3.20;1.58;;;24.10;89.20;;;;;;5114088;28;20164;-60
2022/05/14 12:10:20;;;;;;;4.10;1.40;;;24.20;90.70;;;;;;5114017;28;20176;-59
2022/05/14 12:12:53;;;;;;;2.95;1.45;;;24.20;89.20;;;;;;5113850;28;20251;-59
2022/05/14 12:15:24;;;;;;;3.00;1.65;;;24.30;91.10;;;;;;5114035;28;20177;-59
2022/05/14 12:17:52;;;;;;;2.92;1.45;;;23.90;86.60;;;;;;5112704;28;20173;-59
2022/05/14 12:20:27;;;;;;;2.15;1.67;;;24.10;87.50;;;;;;5113807;28;20173;-61
2022/05/14 12:22:56;;;;;;;1.60;1.17;;;24.00;88.60;;;;;;5113512;28;20657;-60
2022/05/14 12:25:39;;;;;;;3.05;1.60;;;24.20;88.30;;;;;;5113168;28;20626;-61
2022/05/14 12:28:05;;;;;;;2.53;1.73;;;24.30;87.70;;;;;;5113885;28;20169;-60
2022/05/14 12:33:25;;;;;;;3.25;2.10;;;24.30;85.90;;;;;;5062918;28;20277;-60
2022/05/14 12:35:56;;;;;;;3.65;1.75;;;24.10;83.80;;;;;;5113632;28;20599;-60
2022/05/14 12:38:30;;;;;;;1.77;1.42;;;23.70;85.20;;;;;;5112748;28;20251;-60
2022/05/14 12:40:58;;;;;;;1.77;1.30;;;23.80;88.50;;;;;;5112396;28;20530;-60
2022/05/14 12:43:25;;;;;;;2.40;1.75;;;24.00;87.90;;;;;;5113423;28;20216;-60
2022/05/14 12:46:06;;;;;;;4.78;1.60;;;24.20;86.30;;;;;;5110951;28;20699;-59
2022/05/14 12:48:43;;;;;;;3.05;1.58;;;24.20;87.70;;;;;;5112529;28;20157;-60
2022/05/14 12:51:09;;;;;;;1.80;1.20;;;24.30;87.20;;;;;;5113131;28;20218;-60
2022/05/14 12:53:38;;;;;;;2.75;1.42;;;24.50;88.40;;;;;;5112966;28;20583;-60
2022/05/14 12:56:04;;;;;;;3.20;2.10;;;24.60;83.60;;;;;;5113175;28;20223;-60
2022/05/14 12:58:32;;;;;;;3.47;1.75;;;24.50;82.70;;;;;;5112928;28;20169;-60
2022/05/14 13:00:59;;;;;;;4.43;1.92;;;24.10;81.90;;;;;;5112911;28;20565;-60
2022/05/14 13:03:35;;;;;;;5.43;2.42;;;24.10;82.70;;;;;;5113285;28;20205;-58
2022/05/14 13:06:26;;;;;;;3.67;2.08;;;24.00;82.70;;;;;;5113648;28;20198;-60
2022/05/14 13:09:00;;;;;;;3.58;2.08;;;23.80;83.70;;;;;;5113341;28;20165;-58
2022/05/14 13:11:28;;;;;;;3.03;1.65;;;23.40;82.30;;;;;;5113525;28;20178;-61
2022/05/14 13:14:10;;;;;;;2.80;1.90;;;23.70;82.80;;;;;;5113191;28;20643;-61
2022/05/14 13:16:36;;;;;;;3.63;1.70;;;23.60;82.00;;;;;;5113441;28;20172;-61
2022/05/14 13:19:17;;;;;;;3.22;2.05;;;23.80;83.30;;;;;;5113178;28;20170;-61
2022/05/14 13:21:50;;;;;;;3.75;1.67;;;23.80;79.80;;;;;;5113056;28;20169;-61